Weather at Becker Personal Airport [CLOSED]

Public forecast

Using degrees Fahrenheit for public forecast. Weather courtesy of forecast.io.

Closest aviation weather report (METAR) to Becker Personal Airport

Closest report is Cambridge Municipal Airport, 10.7 nm (19.8 km) NNE.

2024/07/25 09:15 (retrieved 9 minutes ago)

KCBG 250915Z AUTO 00000KT 10SM CLR 11/09 A3023 RMK AO2

Closest aviation forecast (TAF) to Becker Personal Airport

Closest forecast is Saint Cloud Regional Airport, 29.5 nm (54.7 km) WNW.

2024/07/25 06:22 (retrieved 3 hours ago)

TAF KSTC 250520Z 2506/2606 11003KT P6SM FEW200 FM251400 15008KT P6SM SKC FM260000 14005KT P6SM SKC